Time;durP1;ratioP1;P1;durP2;ratioP2;P2;SDS_P1;SDS_P2;PMS_P1;PMS_P2;Temp;Humidity;BMP_temperature;BMP_pressure;BME280_temperature;BME280_humidity;BME280_pressure;Samples;Min_cycle;Max_cycle;Signal;HPM_P1;HPM_P2
2023/05/16 00:01:36;;;;;;;18.17;14.20;;;;;;;;;;5041662;28;20560;-88
2023/05/16 00:04:04;;;;;;;18.27;13.27;;;;;;;;;;5044185;28;20710;-88
2023/05/16 00:06:32;;;;;;;22.63;15.43;;;;;;;;;;5050371;28;20279;-88
2023/05/16 00:08:59;;;;;;;18.37;14.27;;;;;;;;;;5043854;28;20230;-87
2023/05/16 00:11:26;;;;;;;19.77;14.73;;;;;;;;;;5066651;28;20230;-88
2023/05/16 00:13:55;;;;;;;19.63;13.93;;;;;;;;;;5055008;28;20214;-88
2023/05/16 00:16:24;;;;;;;20.93;15.17;;;;;;;;;;5056334;28;20233;-88
2023/05/16 00:18:52;;;;;;;21.17;15.33;;;;;;;;;;5050224;28;20267;-88
2023/05/16 00:21:19;;;;;;;20.03;14.00;;;;;;;;;;5050788;28;20284;-87
2023/05/16 00:23:46;;;;;;;22.43;14.70;;;;;;;;;;5040707;28;20211;-88
2023/05/16 00:26:13;;;;;;;21.77;14.50;;;;;;;;;;5059867;28;20240;-87
2023/05/16 00:28:40;;;;;;;21.70;15.23;;;;;;;;;;5053481;28;20221;-88
2023/05/16 00:31:09;;;;;;;22.80;15.37;;;;;;;;;;5050603;28;20337;-88
2023/05/16 00:33:36;;;;;;;18.27;14.80;;;;;;;;;;5050961;28;20217;-88
2023/05/16 00:36:03;;;;;;;19.50;14.63;;;;;;;;;;5042963;28;20225;-88
2023/05/16 00:38:30;;;;;;;21.17;14.83;;;;;;;;;;5063710;28;20240;-88
2023/05/16 00:40:57;;;;;;;24.23;15.87;;;;;;;;;;5063054;28;20222;-88
2023/05/16 00:43:24;;;;;;;21.00;15.33;;;;;;;;;;5055349;28;20650;-88
2023/05/16 00:45:51;;;;;;;20.67;14.80;;;;;;;;;;5063088;28;20713;-88
2023/05/16 00:48:20;;;;;;;22.07;16.13;;;;;;;;;;5054773;28;20743;-87
2023/05/16 00:50:48;;;;;;;22.63;16.03;;;;;;;;;;5054410;28;20703;-87
2023/05/16 00:53:15;;;;;;;24.03;15.97;;;;;;;;;;5055316;28;20260;-87
2023/05/16 00:55:42;;;;;;;22.47;16.23;;;;;;;;;;5054723;28;20253;-88
2023/05/16 00:58:10;;;;;;;24.67;16.83;;;;;;;;;;5055015;28;20230;-87
2023/05/16 01:00:37;;;;;;;28.07;16.60;;;;;;;;;;5051143;28;20678;-88
2023/05/16 01:03:05;;;;;;;33.27;18.83;;;;;;;;;;5054890;28;20216;-88
2023/05/16 01:05:34;;;;;;;22.47;16.33;;;;;;;;;;5054604;28;20316;-88
2023/05/16 01:08:01;;;;;;;29.27;17.87;;;;;;;;;;5052601;28;20249;-87
2023/05/16 01:10:31;;;;;;;27.43;18.03;;;;;;;;;;5056538;28;20242;-88
2023/05/16 01:13:01;;;;;;;26.30;18.90;;;;;;;;;;5054989;28;20213;-88
2023/05/16 01:15:30;;;;;;;27.90;18.30;;;;;;;;;;5054370;28;20229;-88
2023/05/16 01:17:58;;;;;;;30.33;18.93;;;;;;;;;;5054692;28;20228;-88
2023/05/16 01:20:30;;;;;;;30.30;19.43;;;;;;;;;;5054233;28;20234;-88
2023/05/16 01:23:07;;;;;;;29.27;19.17;;;;;;;;;;5042966;28;20610;-88
2023/05/16 01:25:46;;;;;;;26.43;18.73;;;;;;;;;;5042562;28;20233;-88
2023/05/16 01:28:16;;;;;;;28.57;19.30;;;;;;;;;;5048154;28;20275;-88
2023/05/16 01:30:43;;;;;;;26.03;19.83;;;;;;;;;;5054094;28;20252;-88
2023/05/16 01:33:11;;;;;;;29.17;18.07;;;;;;;;;;5046182;28;20222;-88
2023/05/16 01:35:40;;;;;;;30.00;19.37;;;;;;;;;;5045499;28;20230;-88
2023/05/16 01:38:12;;;;;;;29.77;19.50;;;;;;;;;;5049910;28;20222;-87
2023/05/16 01:40:42;;;;;;;26.77;19.80;;;;;;;;;;5041921;28;20230;-88
2023/05/16 01:43:12;;;;;;;30.10;20.90;;;;;;;;;;5050661;28;20213;-87
2023/05/16 01:45:44;;;;;;;29.33;20.30;;;;;;;;;;5053242;28;20234;-87
2023/05/16 01:48:14;;;;;;;29.87;19.27;;;;;;;;;;5058632;28;20242;-87
2023/05/16 01:50:43;;;;;;;30.80;20.60;;;;;;;;;;5064378;28;20593;-87
2023/05/16 01:53:15;;;;;;;28.97;19.63;;;;;;;;;;5049582;28;20215;-87
2023/05/16 01:55:44;;;;;;;30.23;20.57;;;;;;;;;;5051201;28;20237;-87
2023/05/16 01:58:11;;;;;;;29.47;20.47;;;;;;;;;;5056177;28;20227;-87
2023/05/16 02:00:38;;;;;;;26.63;18.83;;;;;;;;;;5049705;28;20730;-88
2023/05/16 02:03:07;;;;;;;29.27;20.10;;;;;;;;;;5048943;28;20232;-87
2023/05/16 02:05:34;;;;;;;28.70;19.57;;;;;;;;;;5058145;28;20233;-87
2023/05/16 02:08:01;;;;;;;31.37;20.17;;;;;;;;;;5050256;28;20285;-87
2023/05/16 02:10:28;;;;;;;30.77;19.93;;;;;;;;;;5048530;28;20237;-87
2023/05/16 02:12:55;;;;;;;28.93;19.53;;;;;;;;;;5053737;28;20210;-87
2023/05/16 02:15:22;;;;;;;28.43;20.43;;;;;;;;;;5053169;28;20378;-88
2023/05/16 02:17:49;;;;;;;28.37;20.23;;;;;;;;;;5052129;28;20312;-88
2023/05/16 02:20:18;;;;;;;31.00;20.50;;;;;;;;;;5033796;28;20620;-88
2023/05/16 02:22:46;;;;;;;27.10;20.53;;;;;;;;;;5042532;28;20206;-88
2023/05/16 02:25:14;;;;;;;30.90;19.83;;;;;;;;;;5060255;28;20220;-88
2023/05/16 02:27:41;;;;;;;30.63;19.83;;;;;;;;;;5045401;28;20231;-89
2023/05/16 02:30:09;;;;;;;30.93;20.60;;;;;;;;;;5060341;28;20217;-88
2023/05/16 02:32:36;;;;;;;27.40;20.33;;;;;;;;;;5053060;28;20249;-88
2023/05/16 02:35:03;;;;;;;29.70;21.13;;;;;;;;;;5045234;28;20667;-88
2023/05/16 02:37:32;;;;;;;30.83;19.97;;;;;;;;;;5052847;28;20226;-88
2023/05/16 02:39:59;;;;;;;29.37;21.13;;;;;;;;;;5055699;28;20213;-87
2023/05/16 02:42:28;;;;;;;29.20;19.87;;;;;;;;;;5063830;28;20230;-87
2023/05/16 02:44:55;;;;;;;28.43;19.27;;;;;;;;;;5059075;28;20210;-88
2023/05/16 02:47:22;;;;;;;28.70;19.80;;;;;;;;;;5046308;28;20237;-88
2023/05/16 02:49:51;;;;;;;28.63;19.83;;;;;;;;;;5058331;28;20576;-88
2023/05/16 02:52:18;;;;;;;31.90;19.77;;;;;;;;;;5057572;28;20275;-87
2023/05/16 02:54:46;;;;;;;29.10;20.63;;;;;;;;;;5047360;28;20213;-87
2023/05/16 02:57:13;;;;;;;28.93;20.33;;;;;;;;;;5047771;28;20234;-87
2023/05/16 02:59:40;;;;;;;28.57;19.43;;;;;;;;;;5048482;28;20783;-87
2023/05/16 03:02:08;;;;;;;28.20;19.77;;;;;;;;;;5045716;28;20222;-87
2023/05/16 03:04:35;;;;;;;30.27;20.53;;;;;;;;;;5044557;28;20202;-87
2023/05/16 03:07:03;;;;;;;30.67;21.37;;;;;;;;;;5051978;28;20240;-87
2023/05/16 03:09:30;;;;;;;29.83;20.60;;;;;;;;;;5052780;28;20225;-88
2023/05/16 03:11:58;;;;;;;28.33;20.07;;;;;;;;;;5059950;28;20238;-87
2023/05/16 03:14:25;;;;;;;25.67;19.60;;;;;;;;;;5046784;28;20207;-88
2023/05/16 03:16:52;;;;;;;29.63;20.17;;;;;;;;;;5051389;28;20234;-88
2023/05/16 03:19:19;;;;;;;30.83;19.70;;;;;;;;;;5058896;28;20230;-87
2023/05/16 03:21:46;;;;;;;28.93;18.83;;;;;;;;;;5051598;28;20257;-87
2023/05/16 03:24:13;;;;;;;29.67;20.17;;;;;;;;;;5060732;28;20210;-87
2023/05/16 03:26:40;;;;;;;27.80;19.17;;;;;;;;;;5051974;28;20237;-87
2023/05/16 03:29:09;;;;;;;30.73;19.90;;;;;;;;;;5052571;28;20222;-87
2023/05/16 03:31:36;;;;;;;29.03;20.33;;;;;;;;;;5051761;28;20273;-88
2023/05/16 03:34:03;;;;;;;29.37;19.30;;;;;;;;;;5047783;28;20578;-87
2023/05/16 03:36:30;;;;;;;26.73;19.47;;;;;;;;;;5056668;28;20284;-87
2023/05/16 03:38:57;;;;;;;29.17;18.77;;;;;;;;;;5054119;28;20237;-87
2023/05/16 03:41:25;;;;;;;25.17;18.20;;;;;;;;;;5051509;28;20233;-87
2023/05/16 03:43:52;;;;;;;26.73;18.70;;;;;;;;;;5051878;28;20321;-87
2023/05/16 03:46:20;;;;;;;27.70;18.57;;;;;;;;;;5043423;28;20292;-87
2023/05/16 03:48:47;;;;;;;25.17;18.37;;;;;;;;;;5051740;28;20241;-87
2023/05/16 03:51:15;;;;;;;27.57;19.13;;;;;;;;;;5043287;28;20237;-87
2023/05/16 03:53:42;;;;;;;26.63;18.50;;;;;;;;;;5044010;28;20213;-88
2023/05/16 03:56:09;;;;;;;29.73;18.83;;;;;;;;;;5035116;28;20245;-87
2023/05/16 03:58:36;;;;;;;28.20;18.77;;;;;;;;;;5044561;28;20238;-87
2023/05/16 04:01:03;;;;;;;27.83;19.40;;;;;;;;;;5050248;28;20230;-87
2023/05/16 04:03:32;;;;;;;27.30;18.57;;;;;;;;;;5043340;28;20695;-87
2023/05/16 04:06:00;;;;;;;26.50;18.70;;;;;;;;;;5050801;28;20233;-87
2023/05/16 04:08:27;;;;;;;30.03;19.13;;;;;;;;;;5051775;28;20445;-87
2023/05/16 04:10:54;;;;;;;25.37;18.70;;;;;;;;;;5043017;28;20700;-87
2023/05/16 04:13:21;;;;;;;26.00;18.47;;;;;;;;;;5053252;28;20210;-87
2023/05/16 04:15:48;;;;;;;28.17;18.47;;;;;;;;;;5048335;28;20232;-88
2023/05/16 04:18:15;;;;;;;25.13;17.93;;;;;;;;;;5043204;28;20299;-88
2023/05/16 04:20:46;;;;;;;27.23;18.43;;;;;;;;;;5059296;28;20241;-87
2023/05/16 04:23:13;;;;;;;26.20;20.00;;;;;;;;;;5047664;28;20214;-88
2023/05/16 04:25:41;;;;;;;26.60;19.00;;;;;;;;;;5055741;28;20232;-88
2023/05/16 04:28:08;;;;;;;28.83;18.60;;;;;;;;;;5060277;28;20341;-88
2023/05/16 04:30:36;;;;;;;23.87;16.60;;;;;;;;;;5059617;28;20229;-87
2023/05/16 04:33:03;;;;;;;28.33;19.43;;;;;;;;;;5051272;28;20725;-87
2023/05/16 04:35:30;;;;;;;26.43;17.83;;;;;;;;;;5042995;28;20717;-88
2023/05/16 04:37:58;;;;;;;29.23;18.27;;;;;;;;;;5040151;28;20313;-87
2023/05/16 04:40:26;;;;;;;31.23;20.03;;;;;;;;;;5051434;28;20237;-88
2023/05/16 04:42:54;;;;;;;31.53;18.90;;;;;;;;;;5042053;28;20210;-89
2023/05/16 04:45:21;;;;;;;29.13;18.20;;;;;;;;;;5044461;28;20240;-88
2023/05/16 04:47:48;;;;;;;28.90;18.80;;;;;;;;;;5059560;28;20320;-86
2023/05/16 04:50:16;;;;;;;30.63;18.27;;;;;;;;;;5046998;28;20206;-86
2023/05/16 04:52:43;;;;;;;30.47;19.17;;;;;;;;;;5059304;28;20257;-86
2023/05/16 04:55:12;;;;;;;32.13;19.13;;;;;;;;;;5053511;28;20576;-86
2023/05/16 04:57:39;;;;;;;29.67;18.30;;;;;;;;;;5055580;28;20321;-85
2023/05/16 05:00:10;;;;;;;31.00;18.97;;;;;;;;;;5050564;28;20707;-85
2023/05/16 05:02:38;;;;;;;30.60;18.70;;;;;;;;;;5048318;28;20281;-85
2023/05/16 05:05:05;;;;;;;28.00;18.70;;;;;;;;;;5039783;28;20702;-86
2023/05/16 05:07:32;;;;;;;29.73;18.90;;;;;;;;;;5036589;28;20241;-85
2023/05/16 05:10:00;;;;;;;28.73;18.53;;;;;;;;;;5044653;28;20663;-85
2023/05/16 05:12:28;;;;;;;28.43;18.83;;;;;;;;;;5044841;28;20281;-82
2023/05/16 05:14:55;;;;;;;29.43;17.53;;;;;;;;;;5047437;28;20210;-83
2023/05/16 05:17:23;;;;;;;33.07;18.43;;;;;;;;;;5043237;28;20229;-83
2023/05/16 05:19:50;;;;;;;27.13;17.47;;;;;;;;;;5058883;28;20302;-84
2023/05/16 05:22:17;;;;;;;33.13;17.63;;;;;;;;;;5050240;28;20222;-83
2023/05/16 05:24:44;;;;;;;30.03;17.90;;;;;;;;;;5054592;28;20209;-83
2023/05/16 05:27:11;;;;;;;28.00;17.40;;;;;;;;;;5053763;28;20738;-83
2023/05/16 05:29:40;;;;;;;30.50;18.63;;;;;;;;;;5054741;28;20214;-83
2023/05/16 05:32:07;;;;;;;29.37;17.93;;;;;;;;;;5050924;28;20248;-83
2023/05/16 05:34:35;;;;;;;31.90;17.77;;;;;;;;;;5048983;28;20210;-83
2023/05/16 05:37:02;;;;;;;29.83;16.67;;;;;;;;;;5053708;28;20573;-83
2023/05/16 05:39:29;;;;;;;26.27;16.67;;;;;;;;;;5062386;28;20233;-83
2023/05/16 05:41:57;;;;;;;24.50;16.70;;;;;;;;;;5051007;28;20300;-83
2023/05/16 05:44:24;;;;;;;29.77;16.60;;;;;;;;;;5045728;28;20267;-84
2023/05/16 05:46:53;;;;;;;24.00;15.33;;;;;;;;;;5045119;28;20238;-84
2023/05/16 05:49:20;;;;;;;25.37;15.90;;;;;;;;;;5062021;28;20324;-83
2023/05/16 05:51:50;;;;;;;23.70;15.00;;;;;;;;;;5053366;28;20241;-83
2023/05/16 05:54:17;;;;;;;25.17;14.87;;;;;;;;;;5042541;28;20652;-83
2023/05/16 05:56:44;;;;;;;24.43;15.03;;;;;;;;;;5049589;28;20233;-84
2023/05/16 05:59:12;;;;;;;26.07;15.70;;;;;;;;;;5053936;28;20245;-84
2023/05/16 06:01:39;;;;;;;22.27;14.63;;;;;;;;;;5046568;28;20759;-84
2023/05/16 06:04:07;;;;;;;20.20;14.63;;;;;;;;;;5043793;28;20203;-83
2023/05/16 06:06:34;;;;;;;27.27;14.50;;;;;;;;;;5051288;28;20222;-84
2023/05/16 06:09:01;;;;;;;20.33;13.50;;;;;;;;;;5044150;28;20254;-84
2023/05/16 06:11:28;;;;;;;16.90;12.37;;;;;;;;;;5051428;28;20224;-84
2023/05/16 06:13:55;;;;;;;15.70;11.67;;;;;;;;;;5047715;28;20206;-84
2023/05/16 06:16:25;;;;;;;20.73;12.30;;;;;;;;;;5048656;28;20234;-83
2023/05/16 06:18:52;;;;;;;18.27;12.30;;;;;;;;;;5049965;28;20226;-83
2023/05/16 06:21:20;;;;;;;15.90;10.67;;;;;;;;;;5056280;28;20317;-86
2023/05/16 06:23:47;;;;;;;18.27;10.77;;;;;;;;;;5048518;28;20198;-82
2023/05/16 06:26:14;;;;;;;16.77;10.30;;;;;;;;;;5050149;28;20233;-84
2023/05/16 06:28:42;;;;;;;14.53;9.63;;;;;;;;;;5033581;28;20749;-84
2023/05/16 06:31:09;;;;;;;16.80;10.20;;;;;;;;;;5052088;28;20256;-84
2023/05/16 06:33:36;;;;;;;12.07;8.67;;;;;;;;;;5048946;28;20309;-83
2023/05/16 06:36:03;;;;;;;11.33;8.53;;;;;;;;;;5055368;28;20238;-82
2023/05/16 06:38:31;;;;;;;10.43;8.10;;;;;;;;;;5063027;28;20762;-82
2023/05/16 06:40:59;;;;;;;10.23;7.70;;;;;;;;;;5051314;28;20572;-82
2023/05/16 06:43:26;;;;;;;10.83;8.03;;;;;;;;;;5051792;28;20672;-82
2023/05/16 06:45:53;;;;;;;9.47;7.93;;;;;;;;;;5051375;28;20608;-82
2023/05/16 06:48:20;;;;;;;8.30;6.60;;;;;;;;;;5059764;28;20233;-83
2023/05/16 06:50:48;;;;;;;10.37;6.83;;;;;;;;;;5058570;28;20701;-82
2023/05/16 06:53:15;;;;;;;7.43;6.17;;;;;;;;;;5060778;28;20245;-81
2023/05/16 06:55:43;;;;;;;6.37;5.10;;;;;;;;;;5051556;28;20665;-83
2023/05/16 06:58:10;;;;;;;5.40;4.90;;;;;;;;;;5051874;28;20230;-82
2023/05/16 07:00:37;;;;;;;7.90;5.10;;;;;;;;;;5051144;28;20234;-82
2023/05/16 07:03:04;;;;;;;5.40;4.90;;;;;;;;;;5050545;28;20205;-81
2023/05/16 07:05:32;;;;;;;5.50;4.17;;;;;;;;;;5044624;28;20230;-82
2023/05/16 07:07:59;;;;;;;4.40;4.00;;;;;;;;;;5051768;28;20282;-82
2023/05/16 07:10:26;;;;;;;4.90;4.40;;;;;;;;;;5050601;28;20779;-82
2023/05/16 07:12:55;;;;;;;3.63;3.30;;;;;;;;;;5052232;28;20675;-82
2023/05/16 07:15:22;;;;;;;3.87;3.47;;;;;;;;;;5047124;28;20842;-83
2023/05/16 07:17:50;;;;;;;4.53;2.63;;;;;;;;;;5058914;28;20226;-82
2023/05/16 07:20:17;;;;;;;3.23;2.87;;;;;;;;;;5050382;28;20241;-82
2023/05/16 07:22:44;;;;;;;3.93;3.23;;;;;;;;;;5035424;28;20868;-82
2023/05/16 07:25:13;;;;;;;4.37;2.93;;;;;;;;;;5056404;28;20214;-84
2023/05/16 07:27:43;;;;;;;4.00;2.60;;;;;;;;;;5050874;28;20222;-84
2023/05/16 07:30:13;;;;;;;3.43;2.53;;;;;;;;;;5050543;28;20218;-83
2023/05/16 07:32:40;;;;;;;2.90;2.70;;;;;;;;;;5050792;28;20297;-82
2023/05/16 07:35:08;;;;;;;2.60;2.40;;;;;;;;;;5046789;28;20206;-85
2023/05/16 07:37:35;;;;;;;2.50;2.30;;;;;;;;;;5050146;28;20229;-84
2023/05/16 07:40:03;;;;;;;2.60;2.40;;;;;;;;;;5052472;28;20660;-82
2023/05/16 07:42:30;;;;;;;2.30;2.20;;;;;;;;;;5050483;28;20734;-83
2023/05/16 07:44:57;;;;;;;3.20;2.90;;;;;;;;;;5050636;28;20202;-83
2023/05/16 07:47:25;;;;;;;2.47;2.37;;;;;;;;;;5041634;28;20245;-83
2023/05/16 07:49:52;;;;;;;2.57;2.37;;;;;;;;;;5050597;28;20206;-82
2023/05/16 07:52:20;;;;;;;2.97;2.67;;;;;;;;;;5035350;28;20233;-82
2023/05/16 07:54:47;;;;;;;3.10;2.90;;;;;;;;;;5050790;28;20234;-82
2023/05/16 07:57:14;;;;;;;3.73;2.70;;;;;;;;;;5049372;28;20237;-82
2023/05/16 07:59:41;;;;;;;3.90;3.50;;;;;;;;;;5050443;28;20293;-82
2023/05/16 08:02:08;;;;;;;2.87;2.67;;;;;;;;;;5044989;28;20708;-82
2023/05/16 08:04:37;;;;;;;2.80;2.60;;;;;;;;;;5044458;28;20206;-82
2023/05/16 08:07:04;;;;;;;3.30;3.07;;;;;;;;;;5040823;28;20258;-82
2023/05/16 08:09:31;;;;;;;3.37;2.83;;;;;;;;;;5043414;28;20752;-82
2023/05/16 08:12:02;;;;;;;3.93;3.07;;;;;;;;;;5041070;28;20222;-82
2023/05/16 08:14:29;;;;;;;2.83;2.63;;;;;;;;;;5050804;28;20209;-83
2023/05/16 08:16:56;;;;;;;4.53;3.17;;;;;;;;;;5057691;28;20229;-82
2023/05/16 08:19:23;;;;;;;3.03;2.73;;;;;;;;;;5042286;28;20228;-82
2023/05/16 08:21:52;;;;;;;3.03;2.67;;;;;;;;;;5049296;28;20332;-82
2023/05/16 08:24:19;;;;;;;2.83;2.63;;;;;;;;;;5049654;28;20715;-82
2023/05/16 08:26:46;;;;;;;2.90;2.60;;;;;;;;;;5056482;28;20601;-82
2023/05/16 08:29:13;;;;;;;2.83;2.60;;;;;;;;;;5060120;28;20233;-82
2023/05/16 08:31:40;;;;;;;2.90;2.70;;;;;;;;;;5049817;28;20225;-82
2023/05/16 08:34:08;;;;;;;2.80;2.60;;;;;;;;;;5049127;28;20226;-88
2023/05/16 08:36:35;;;;;;;2.87;2.67;;;;;;;;;;5047778;28;20241;-84
2023/05/16 08:39:04;;;;;;;2.40;2.17;;;;;;;;;;5050549;28;20236;-83
2023/05/16 08:41:32;;;;;;;1.90;1.80;;;;;;;;;;5054137;28;20233;-83
2023/05/16 08:43:59;;;;;;;1.47;1.47;;;;;;;;;;5045934;28;20210;-83
2023/05/16 08:46:26;;;;;;;2.03;1.53;;;;;;;;;;5053085;28;20236;-84
2023/05/16 08:48:54;;;;;;;1.60;1.50;;;;;;;;;;5054305;28;20234;-84
2023/05/16 08:51:22;;;;;;;1.50;1.40;;;;;;;;;;5060479;28;20225;-84
2023/05/16 08:53:53;;;;;;;2.03;1.30;;;;;;;;;;5054576;28;20588;-85
2023/05/16 08:56:22;;;;;;;1.30;1.30;;;;;;;;;;5038312;28;21420;-84
2023/05/16 08:58:49;;;;;;;1.40;1.30;;;;;;;;;;5048489;28;20218;-84
2023/05/16 09:01:17;;;;;;;1.30;1.30;;;;;;;;;;5069389;28;20303;-84
2023/05/16 09:03:44;;;;;;;1.20;1.20;;;;;;;;;;5062551;28;20195;-83
2023/05/16 09:06:11;;;;;;;1.53;1.20;;;;;;;;;;5054519;28;20237;-83
2023/05/16 09:08:38;;;;;;;1.77;1.67;;;;;;;;;;5060622;28;20230;-85
2023/05/16 09:11:05;;;;;;;1.40;1.40;;;;;;;;;;5044378;28;20230;-85
2023/05/16 09:13:34;;;;;;;2.37;1.27;;;;;;;;;;5054518;28;20466;-85
2023/05/16 09:16:11;;;;;;;1.70;1.60;;;;;;;;;;5052907;28;20722;-84
2023/05/16 09:18:39;;;;;;;1.43;1.40;;;;;;;;;;5047261;28;20264;-84
2023/05/16 09:21:06;;;;;;;1.97;1.43;;;;;;;;;;5053124;28;20268;-84
2023/05/16 09:23:33;;;;;;;1.80;1.70;;;;;;;;;;5053058;28;20288;-84
2023/05/16 09:26:00;;;;;;;1.50;1.23;;;;;;;;;;5053237;28;20719;-84
2023/05/16 09:28:28;;;;;;;2.60;1.50;;;;;;;;;;5050314;28;20226;-85
2023/05/16 09:30:58;;;;;;;2.03;1.70;;;;;;;;;;5044428;28;20225;-83
2023/05/16 09:33:25;;;;;;;1.93;1.70;;;;;;;;;;5044741;28;20747;-83
2023/05/16 09:35:56;;;;;;;2.40;1.40;;;;;;;;;;5052965;28;20230;-83
2023/05/16 09:38:23;;;;;;;2.57;1.50;;;;;;;;;;5053100;28;20272;-82
2023/05/16 09:40:51;;;;;;;2.93;1.60;;;;;;;;;;5052071;28;20229;-82
2023/05/16 09:43:18;;;;;;;2.50;1.70;;;;;;;;;;5052551;28;20233;-82
2023/05/16 09:45:47;;;;;;;2.13;1.40;;;;;;;;;;5052686;28;20234;-82
2023/05/16 09:48:16;;;;;;;1.97;1.70;;;;;;;;;;5052380;28;20261;-84
2023/05/16 09:50:48;;;;;;;1.57;1.47;;;;;;;;;;5046497;28;20226;-84
2023/05/16 09:53:15;;;;;;;2.40;1.60;;;;;;;;;;5050812;28;20253;-83
2023/05/16 09:55:42;;;;;;;3.83;1.63;;;;;;;;;;5056464;28;20237;-83
2023/05/16 09:58:09;;;;;;;3.33;2.13;;;;;;;;;;5052431;28;20223;-83
2023/05/16 10:00:37;;;;;;;2.20;1.60;;;;;;;;;;5051821;28;20268;-85
2023/05/16 10:03:04;;;;;;;2.60;1.40;;;;;;;;;;5040355;28;20597;-85
2023/05/16 10:05:33;;;;;;;4.43;2.00;;;;;;;;;;5044330;28;20255;-84
2023/05/16 10:08:01;;;;;;;3.50;1.83;;;;;;;;;;5052401;28;20233;-84
2023/05/16 10:10:28;;;;;;;5.90;2.07;;;;;;;;;;5046894;28;20613;-84
2023/05/16 10:12:57;;;;;;;3.40;1.70;;;;;;;;;;5065163;28;20209;-84
2023/05/16 10:15:24;;;;;;;3.60;2.00;;;;;;;;;;5043428;28;20231;-84
2023/05/16 10:17:52;;;;;;;5.87;2.20;;;;;;;;;;5052163;28;20229;-84
2023/05/16 10:20:19;;;;;;;2.10;1.90;;;;;;;;;;5051066;28;20237;-84
2023/05/16 10:22:49;;;;;;;3.07;2.63;;;;;;;;;;5043831;28;20202;-84
2023/05/16 10:25:21;;;;;;;3.37;2.20;;;;;;;;;;5059935;28;20206;-83
2023/05/16 10:27:48;;;;;;;4.40;2.00;;;;;;;;;;5046208;28;20230;-83
2023/05/16 10:30:16;;;;;;;1.67;1.57;;;;;;;;;;5057388;28;20209;-84
2023/05/16 10:32:44;;;;;;;4.47;1.90;;;;;;;;;;5060601;28;20260;-82
2023/05/16 10:35:11;;;;;;;5.67;2.13;;;;;;;;;;5051364;28;20289;-83
2023/05/16 10:37:38;;;;;;;2.10;1.60;;;;;;;;;;5044772;28;20313;-83
2023/05/16 10:40:08;;;;;;;3.27;2.07;;;;;;;;;;5050788;28;20202;-84
2023/05/16 10:42:35;;;;;;;1.57;1.47;;;;;;;;;;5048451;28;20205;-83
2023/05/16 10:45:16;;;;;;;1.90;1.50;;;;;;;;;;5055615;28;20202;-84
2023/05/16 10:47:51;;;;;;;2.80;1.90;;;;;;;;;;5045411;28;20312;-91
2023/05/16 10:50:31;;;;;;;4.50;1.67;;;;;;;;;;5054040;28;20210;-91
2023/05/16 10:53:11;;;;;;;2.20;1.60;;;;;;;;;;5053276;28;20198;-91
2023/05/16 10:55:41;;;;;;;3.10;1.60;;;;;;;;;;5048845;28;20233;-92
2023/05/16 10:58:08;;;;;;;3.87;1.70;;;;;;;;;;5050060;28;20228;-92
2023/05/16 11:00:36;;;;;;;2.07;1.70;;;;;;;;;;5056425;28;20229;-92
2023/05/16 11:03:05;;;;;;;3.20;1.90;;;;;;;;;;5061603;28;20202;-92
2023/05/16 11:05:32;;;;;;;3.17;1.80;;;;;;;;;;5054899;28;20240;-93
2023/05/16 11:08:06;;;;;;;3.20;1.83;;;;;;;;;;5046090;28;20225;-93
2023/05/16 11:10:35;;;;;;;2.57;1.80;;;;;;;;;;5053205;28;20225;-93
2023/05/16 11:13:08;;;;;;;6.57;2.03;;;;;;;;;;5062050;28;20206;-91
2023/05/16 11:15:35;;;;;;;3.23;2.03;;;;;;;;;;5053051;28;20230;-91
2023/05/16 11:18:06;;;;;;;5.77;2.07;;;;;;;;;;5053538;28;20226;-92
2023/05/16 11:20:34;;;;;;;3.03;2.20;;;;;;;;;;5052587;28;20246;-92
2023/05/16 11:23:29;;;;;;;2.00;1.83;;;;;;;;;;5049279;28;20428;-92
2023/05/16 11:25:57;;;;;;;5.53;1.97;;;;;;;;;;5012735;28;20222;-93
2023/05/16 11:28:26;;;;;;;3.80;2.13;;;;;;;;;;5045536;28;20579;-91
2023/05/16 11:30:56;;;;;;;3.57;1.90;;;;;;;;;;5044349;28;20240;-94
2023/05/16 11:33:23;;;;;;;4.67;1.80;;;;;;;;;;5069066;28;20607;-93
2023/05/16 11:36:04;;;;;;;2.13;2.00;;;;;;;;;;5044559;28;20230;-92
2023/05/16 11:38:32;;;;;;;4.10;2.40;;;;;;;;;;5061276;28;20237;-94
2023/05/16 11:41:03;;;;;;;6.57;2.00;;;;;;;;;;5052857;28;20230;-92
2023/05/16 11:43:37;;;;;;;5.60;1.90;;;;;;;;;;5054219;28;20211;-92
2023/05/16 11:46:04;;;;;;;5.23;1.77;;;;;;;;;;5055735;28;20236;-92
2023/05/16 11:48:31;;;;;;;2.57;2.00;;;;;;;;;;5055862;28;20240;-91
2023/05/16 11:50:58;;;;;;;3.87;1.80;;;;;;;;;;5058409;28;20727;-91
2023/05/16 11:53:27;;;;;;;4.57;1.60;;;;;;;;;;5054676;28;20216;-92
2023/05/16 11:55:54;;;;;;;3.90;1.77;;;;;;;;;;5053459;28;20647;-91
2023/05/16 11:58:21;;;;;;;6.70;2.20;;;;;;;;;;5053913;28;20293;-92
2023/05/16 12:00:50;;;;;;;4.63;2.10;;;;;;;;;;5052916;28;20308;-93
2023/05/16 12:03:18;;;;;;;3.93;1.60;;;;;;;;;;5054877;28;20182;-94
2023/05/16 12:05:51;;;;;;;4.10;2.10;;;;;;;;;;5073114;28;20225;-94
2023/05/16 12:08:19;;;;;;;4.93;1.90;;;;;;;;;;5048081;28;20230;-93
2023/05/16 12:10:47;;;;;;;6.10;2.57;;;;;;;;;;5041411;28;20667;-96
2023/05/16 12:13:16;;;;;;;3.97;2.03;;;;;;;;;;5069141;28;20217;-94
2023/05/16 12:15:43;;;;;;;4.60;1.90;;;;;;;;;;5061446;28;20222;-95
2023/05/16 12:18:11;;;;;;;5.27;2.10;;;;;;;;;;5054053;28;20221;-94
2023/05/16 12:20:39;;;;;;;3.77;1.90;;;;;;;;;;5034556;28;20246;-93
2023/05/16 12:23:06;;;;;;;3.67;2.03;;;;;;;;;;5053069;28;20249;-94
2023/05/16 12:25:36;;;;;;;3.53;1.60;;;;;;;;;;5052301;28;20234;-92
2023/05/16 12:28:03;;;;;;;6.43;2.10;;;;;;;;;;5037024;28;20318;-91
2023/05/16 12:30:31;;;;;;;3.43;1.53;;;;;;;;;;5042625;28;20229;-91
2023/05/16 12:32:59;;;;;;;3.40;1.73;;;;;;;;;;5058643;28;20201;-90
2023/05/16 12:35:32;;;;;;;7.20;1.80;;;;;;;;;;5073890;28;20658;-93
2023/05/16 12:37:59;;;;;;;3.43;1.60;;;;;;;;;;5060103;28;20261;-92
2023/05/16 12:40:28;;;;;;;3.17;1.53;;;;;;;;;;5052552;28;20237;-95
2023/05/16 12:42:55;;;;;;;4.63;1.73;;;;;;;;;;5054467;28;20202;-92
2023/05/16 12:45:23;;;;;;;3.80;1.70;;;;;;;;;;5053899;28;20236;-95
2023/05/16 12:47:51;;;;;;;2.03;1.50;;;;;;;;;;5054121;28;20778;-93
2023/05/16 12:50:18;;;;;;;4.60;1.60;;;;;;;;;;5054028;28;20213;-94
2023/05/16 12:52:51;;;;;;;2.10;1.47;;;;;;;;;;5057140;28;20216;-95
2023/05/16 12:55:18;;;;;;;2.50;1.30;;;;;;;;;;5057808;28;20593;-96
2023/05/16 12:57:46;;;;;;;3.13;1.43;;;;;;;;;;5058115;28;20664;-94
2023/05/16 13:00:14;;;;;;;3.27;1.83;;;;;;;;;;5056862;28;20210;-95
2023/05/16 13:02:43;;;;;;;4.40;1.57;;;;;;;;;;5059187;28;20205;-96
2023/05/16 13:05:10;;;;;;;7.57;2.97;;;;;;;;;;5058449;28;20204;-95
2023/05/16 13:07:39;;;;;;;5.07;1.70;;;;;;;;;;5057889;28;20296;-95
2023/05/16 13:10:09;;;;;;;4.67;1.43;;;;;;;;;;5057746;28;20261;-93
2023/05/16 13:12:37;;;;;;;2.17;1.33;;;;;;;;;;5057412;28;20210;-94
2023/05/16 13:15:06;;;;;;;6.10;1.80;;;;;;;;;;5040306;28;20218;-94
2023/05/16 13:17:33;;;;;;;5.95;1.52;;;;;;;;;;5036954;28;20318;-94
2023/05/16 13:20:00;;;;;;;3.80;1.48;;;;;;;;;;5034412;28;20741;-94
2023/05/16 13:22:27;;;;;;;2.28;1.42;;;;;;;;;;5047660;28;20281;-93
2023/05/16 13:24:54;;;;;;;3.17;1.23;;;;;;;;;;5055347;28;20202;-94
2023/05/16 13:27:23;;;;;;;2.17;1.52;;;;;;;;;;5057112;28;20242;-94
2023/05/16 13:29:50;;;;;;;4.70;1.58;;;;;;;;;;5057410;28;20209;-94
2023/05/16 13:32:19;;;;;;;4.35;1.35;;;;;;;;;;5054913;28;20241;-94
2023/05/16 13:34:46;;;;;;;4.45;1.30;;;;;;;;;;5056828;28;20236;-94
2023/05/16 13:37:13;;;;;;;3.45;1.40;;;;;;;;;;5056188;28;20226;-94
2023/05/16 13:39:40;;;;;;;1.02;0.98;;;;;;;;;;5056670;28;20198;-94
2023/05/16 13:42:08;;;;;;;3.00;1.48;;;;;;;;;;5053036;28;20654;-87
2023/05/16 13:44:36;;;;;;;2.88;1.45;;;;;;;;;;5051509;28;20237;-87
2023/05/16 13:47:04;;;;;;;2.33;1.25;;;;;;;;;;5052759;28;20234;-88
2023/05/16 13:49:31;;;;;;;1.85;1.25;;;;;;;;;;5052549;28;20244;-87
2023/05/16 13:51:58;;;;;;;5.78;1.40;;;;;;;;;;5052934;28;20229;-87
2023/05/16 13:54:25;;;;;;;4.28;1.35;;;;;;;;;;5062442;28;20799;-89
2023/05/16 13:56:52;;;;;;;2.50;1.10;;;;;;;;;;5059932;28;20309;-87
2023/05/16 13:59:19;;;;;;;2.03;1.35;;;;;;;;;;5053305;28;20237;-88
2023/05/16 14:01:47;;;;;;;4.10;1.58;;;;;;;;;;5060974;28;20226;-89
2023/05/16 14:04:14;;;;;;;4.93;1.20;;;;;;;;;;5046316;28;20206;-89
2023/05/16 14:06:41;;;;;;;8.52;2.20;;;;;;;;;;5052533;28;20233;-89
2023/05/16 14:09:09;;;;;;;3.40;1.17;;;;;;;;;;5053721;28;20222;-88
2023/05/16 14:11:36;;;;;;;1.17;1.00;;;;;;;;;;5052203;28;20316;-88
2023/05/16 14:14:03;;;;;;;3.55;1.70;;;;;;;;;;5053213;28;20201;-88
2023/05/16 14:16:32;;;;;;;1.67;1.20;;;;;;;;;;5062351;28;20260;-88
2023/05/16 14:19:00;;;;;;;2.75;1.10;;;;;;;;;;5059234;28;20687;-88
2023/05/16 14:21:27;;;;;;;4.45;2.08;;;;;;;;;;5052584;28;20305;-90
2023/05/16 14:23:54;;;;;;;1.70;0.95;;;;;;;;;;5054998;28;20201;-88
2023/05/16 14:26:24;;;;;;;1.52;1.15;;;;;;;;;;5052710;28;20240;-88
2023/05/16 14:28:51;;;;;;;4.35;1.60;;;;;;;;;;5037518;28;20308;-88
2023/05/16 14:31:18;;;;;;;1.17;0.90;;;;;;;;;;5061112;28;20230;-87
2023/05/16 14:33:45;;;;;;;1.80;1.00;;;;;;;;;;5057047;28;20202;-89
2023/05/16 14:36:14;;;;;;;3.40;1.30;;;;;;;;;;5045875;28;20237;-88